createdAt,value
2022-08-19T00:00:05.189Z,86.73
2022-08-19T00:02:33.449Z,86.81
2022-08-19T00:05:01.306Z,86.85
2022-08-19T00:07:29.281Z,86.89
2022-08-19T00:09:58.675Z,88.01
2022-08-19T00:12:26.688Z,87.86
2022-08-19T00:14:55.109Z,88.02
2022-08-19T00:17:23.517Z,87.57
2022-08-19T00:19:51.593Z,87.45
2022-08-19T00:22:21.324Z,87.33
2022-08-19T00:24:50.882Z,86.76
2022-08-19T00:27:26.511Z,87.09
2022-08-19T00:29:54.885Z,87.40
2022-08-19T00:32:23.889Z,87.99
2022-08-19T00:34:53.782Z,86.99
2022-08-19T00:37:23.913Z,87.59
2022-08-19T00:39:53.181Z,87.50
2022-08-19T00:42:23.944Z,87.90
2022-08-19T00:44:52.381Z,87.44
2022-08-19T00:47:20.768Z,88.51
2022-08-19T00:49:52.592Z,88.47
2022-08-19T00:52:24.721Z,89.46
2022-08-19T00:54:54.450Z,89.89
2022-08-19T00:57:31.860Z,89.17
2022-08-19T01:00:03.117Z,88.67
2022-08-19T01:02:34.237Z,89.31
2022-08-19T01:05:04.551Z,89.42
2022-08-19T01:07:35.862Z,89.92
2022-08-19T01:10:09.067Z,90.48
2022-08-19T01:12:39.173Z,91.20
2022-08-19T01:15:09.330Z,90.10
2022-08-19T01:17:39.865Z,89.57
2022-08-19T01:20:11.578Z,90.35
2022-08-19T01:22:46.704Z,90.94
2022-08-19T01:25:15.470Z,90.44
2022-08-19T01:27:45.602Z,90.32
2022-08-19T01:30:16.241Z,90.73
2022-08-19T01:32:44.386Z,90.21
2022-08-19T01:35:15.113Z,89.56
2022-08-19T01:37:50.645Z,90.67
2022-08-19T01:40:20.285Z,89.92
2022-08-19T01:42:48.599Z,90.03
2022-08-19T01:45:19.453Z,89.76
2022-08-19T01:47:51.590Z,91.41
2022-08-19T01:50:30.130Z,91.40
2022-08-19T01:53:06.389Z,91.24
2022-08-19T01:55:40.488Z,92.24
2022-08-19T01:58:14.243Z,92.03
2022-08-19T02:00:42.138Z,91.21
2022-08-19T02:03:12.107Z,91.37
2022-08-19T02:05:40.385Z,91.23
2022-08-19T02:08:10.264Z,91.29
2022-08-19T02:10:41.580Z,91.81
2022-08-19T02:13:09.778Z,92.27
2022-08-19T02:15:38.814Z,92.82
2022-08-19T02:18:08.367Z,92.05
2022-08-19T02:20:37.403Z,93.25
2022-08-19T02:23:05.740Z,92.51
2022-08-19T02:25:43.925Z,93.09
2022-08-19T02:28:16.645Z,93.18
2022-08-19T02:30:46.354Z,94.22
2022-08-19T02:33:14.173Z,93.43
2022-08-19T02:35:44.254Z,93.69
2022-08-19T02:38:30.014Z,93.59
2022-08-19T02:41:01.798Z,92.61
2022-08-19T02:43:33.743Z,93.80
2022-08-19T02:46:02.729Z,93.76
2022-08-19T02:48:30.978Z,93.44
2022-08-19T02:50:58.735Z,93.76
2022-08-19T02:53:29.676Z,93.06
2022-08-19T02:55:58.967Z,92.64
2022-08-19T02:58:27.602Z,93.30
2022-08-19T03:00:57.740Z,93.08
2022-08-19T03:03:25.585Z,93.26
2022-08-19T03:05:56.129Z,92.80
2022-08-19T03:08:26.521Z,92.26
2022-08-19T03:10:54.945Z,93.43
2022-08-19T03:13:25.047Z,92.66
2022-08-19T03:15:53.061Z,92.91
2022-08-19T03:18:20.914Z,92.67
2022-08-19T03:20:53.783Z,93.64
2022-08-19T03:23:22.311Z,92.63
2022-08-19T03:25:58.112Z,92.78
2022-08-19T03:28:33.978Z,92.84
2022-08-19T03:31:03.995Z,93.00
2022-08-19T03:33:33.326Z,92.25
2022-08-19T03:36:08.745Z,92.20
2022-08-19T03:38:37.747Z,91.85
2022-08-19T03:41:08.908Z,92.74
2022-08-19T03:43:40.350Z,92.49
2022-08-19T03:46:11.037Z,92.75
2022-08-19T03:48:40.505Z,92.68
2022-08-19T03:51:09.804Z,93.10
2022-08-19T03:53:37.627Z,94.75
2022-08-19T03:56:05.904Z,95.37
2022-08-19T03:58:33.651Z,97.01
2022-08-19T04:01:02.831Z,96.41
2022-08-19T04:03:32.387Z,96.54
2022-08-19T04:06:00.233Z,97.46
2022-08-19T04:08:28.232Z,96.35
2022-08-19T04:10:58.836Z,96.34
2022-08-19T04:13:27.209Z,96.81
2022-08-19T04:15:55.409Z,97.49
2022-08-19T04:18:24.934Z,97.71
2022-08-19T04:20:55.547Z,97.55
2022-08-19T04:23:23.385Z,97.82
2022-08-19T04:25:51.224Z,97.98
2022-08-19T04:28:19.513Z,97.29
2022-08-19T04:30:49.966Z,97.07
2022-08-19T04:33:26.681Z,96.95
2022-08-19T04:35:59.108Z,98.14
2022-08-19T04:38:27.166Z,98.15
2022-08-19T04:41:12.754Z,98.00
2022-08-19T04:43:40.804Z,97.98
2022-08-19T04:46:09.001Z,96.54
2022-08-19T04:48:38.079Z,95.93
2022-08-19T04:51:18.700Z,95.23
2022-08-19T04:53:46.943Z,95.40
2022-08-19T04:56:18.103Z,94.86
2022-08-19T04:58:46.878Z,94.45
2022-08-19T05:01:16.611Z,95.28
2022-08-19T05:03:44.474Z,94.80
2022-08-19T05:06:15.201Z,93.76
2022-08-19T05:08:45.596Z,94.09
2022-08-19T05:11:17.699Z,93.52
2022-08-19T05:13:53.742Z,93.25
2022-08-19T05:16:24.090Z,93.85
2022-08-19T05:19:09.800Z,92.63
2022-08-19T05:21:56.559Z,92.54
2022-08-19T05:24:27.101Z,92.33
2022-08-19T05:26:58.930Z,91.22
2022-08-19T05:29:33.468Z,91.07
2022-08-19T05:32:09.749Z,91.75
2022-08-19T05:34:38.966Z,90.72
2022-08-19T05:37:08.494Z,91.36
2022-08-19T05:39:39.418Z,90.81
2022-08-19T05:42:09.305Z,93.07
2022-08-19T05:44:39.654Z,92.73
2022-08-19T05:47:10.164Z,92.20
2022-08-19T05:49:39.083Z,91.92
2022-08-19T05:52:09.288Z,92.18
2022-08-19T05:54:41.060Z,91.94
2022-08-19T05:57:09.531Z,91.43
2022-08-19T05:59:40.484Z,90.22
2022-08-19T06:02:08.805Z,90.29
2022-08-19T06:04:36.734Z,89.35
2022-08-19T06:07:12.794Z,88.40
2022-08-19T06:09:54.354Z,88.58
2022-08-19T06:12:31.535Z,87.91
2022-08-19T06:15:01.103Z,87.32
2022-08-19T06:17:30.930Z,86.71
2022-08-19T06:19:59.328Z,85.66
2022-08-19T06:22:27.406Z,85.33
2022-08-19T06:24:57.633Z,85.37
2022-08-19T06:27:25.853Z,85.71
2022-08-19T06:29:53.820Z,85.22
2022-08-19T06:32:21.809Z,85.24
2022-08-19T06:34:49.575Z,85.04
2022-08-19T06:37:17.976Z,84.86
2022-08-19T06:39:46.884Z,83.15
2022-08-19T06:42:17.647Z,82.44
2022-08-19T06:44:49.283Z,82.63
2022-08-19T06:47:23.821Z,83.34
2022-08-19T06:49:56.962Z,82.29
2022-08-19T06:52:29.428Z,81.76
2022-08-19T06:54:59.552Z,81.71
2022-08-19T06:57:33.569Z,81.70
2022-08-19T07:00:01.991Z,81.89
2022-08-19T07:02:30.465Z,82.27
2022-08-19T07:04:59.271Z,83.51
2022-08-19T07:07:27.805Z,82.91
2022-08-19T07:09:59.115Z,81.92
2022-08-19T07:12:35.780Z,82.42
2022-08-19T07:15:04.508Z,81.93
2022-08-19T07:17:34.658Z,81.07
2022-08-19T07:20:05.493Z,81.77
2022-08-19T07:22:35.105Z,80.69
2022-08-19T07:25:04.602Z,80.92
2022-08-19T07:27:34.854Z,79.73
2022-08-19T07:30:03.085Z,78.62
2022-08-19T07:32:31.689Z,78.92
2022-08-19T07:35:01.386Z,78.07
2022-08-19T07:37:33.029Z,78.65
2022-08-19T07:40:01.910Z,77.10
2022-08-19T07:42:31.189Z,76.16
2022-08-19T07:45:00.546Z,75.81
2022-08-19T07:47:50.060Z,75.71
2022-08-19T07:50:18.896Z,73.99
2022-08-19T07:52:48.994Z,73.75
2022-08-19T07:55:42.208Z,73.43
2022-08-19T07:58:08.008Z,73.26
2022-08-19T08:00:37.449Z,72.07
2022-08-19T08:03:05.530Z,70.96
2022-08-19T08:05:50.210Z,71.53
2022-08-19T08:08:35.716Z,70.64
2022-08-19T08:11:03.642Z,69.69
2022-08-19T08:13:36.214Z,69.85
2022-08-19T08:16:06.211Z,68.51
2022-08-19T08:18:43.073Z,67.84
2022-08-19T08:21:10.941Z,67.37
2022-08-19T08:23:39.780Z,66.37
2022-08-19T08:26:07.772Z,66.50
2022-08-19T08:28:36.094Z,65.66
2022-08-19T08:31:09.433Z,65.92
2022-08-19T08:33:37.746Z,64.82
2022-08-19T08:36:06.981Z,64.46
2022-08-19T08:38:39.654Z,64.21
2022-08-19T08:41:20.420Z,63.51
2022-08-19T08:43:52.020Z,62.92
2022-08-19T08:46:31.557Z,62.04
2022-08-19T08:49:06.642Z,61.92
2022-08-19T08:51:39.229Z,62.08
2022-08-19T08:54:10.993Z,62.31
2022-08-19T08:56:40.254Z,60.97
2022-08-19T08:59:14.630Z,60.61
2022-08-19T09:01:43.884Z,60.55
2022-08-19T09:04:14.753Z,60.01
2022-08-19T09:06:52.655Z,58.55
2022-08-19T09:09:31.965Z,57.23
2022-08-19T09:12:15.596Z,56.29
2022-08-19T09:14:51.572Z,56.51
2022-08-19T09:17:31.622Z,56.81
2022-08-19T09:20:05.834Z,56.32
2022-08-19T09:22:37.508Z,55.82
2022-08-19T09:25:07.181Z,55.49
2022-08-19T09:27:43.056Z,56.36
2022-08-19T09:30:16.612Z,55.58
2022-08-19T09:32:47.146Z,55.51
2022-08-19T09:35:23.674Z,54.65
2022-08-19T09:37:57.621Z,54.89
2022-08-19T09:40:30.100Z,55.07
2022-08-19T09:43:03.382Z,55.69
2022-08-19T09:45:37.982Z,55.98
2022-08-19T09:48:07.424Z,54.51
2022-08-19T09:50:51.414Z,53.73
2022-08-19T09:53:23.423Z,54.12
2022-08-19T09:55:53.769Z,54.27
2022-08-19T09:58:26.398Z,54.06
2022-08-19T10:00:54.646Z,52.66
2022-08-19T10:03:25.628Z,52.61
2022-08-19T10:06:00.597Z,52.94
2022-08-19T10:08:34.193Z,52.96
2022-08-19T10:11:28.064Z,52.43
2022-08-19T10:13:51.219Z,53.53
2022-08-19T10:16:22.428Z,52.81
2022-08-19T10:18:58.772Z,52.13
2022-08-19T10:21:29.825Z,51.72
2022-08-19T10:24:02.589Z,52.02
2022-08-19T10:26:32.446Z,51.46
2022-08-19T10:29:00.433Z,51.69
2022-08-19T10:32:00.039Z,53.01
2022-08-19T10:34:27.488Z,52.26
2022-08-19T10:37:01.683Z,52.77
2022-08-19T10:39:30.973Z,52.51
2022-08-19T10:41:59.945Z,52.12
2022-08-19T10:44:32.150Z,52.34
2022-08-19T10:47:01.697Z,52.89
2022-08-19T10:49:31.398Z,52.55
2022-08-19T10:52:20.714Z,52.70
2022-08-19T10:55:16.821Z,52.11
2022-08-19T10:58:01.876Z,52.33
2022-08-19T11:00:31.956Z,53.20
2022-08-19T11:02:59.879Z,53.65
2022-08-19T11:05:29.111Z,52.88
2022-08-19T11:08:22.086Z,52.92
2022-08-19T11:10:51.886Z,52.63
2022-08-19T11:13:19.985Z,51.43
2022-08-19T11:15:48.341Z,51.82
2022-08-19T11:18:17.850Z,52.00
2022-08-19T11:20:47.091Z,52.02
2022-08-19T11:23:14.890Z,51.95
2022-08-19T11:25:42.773Z,51.22
2022-08-19T11:28:10.566Z,52.09
2022-08-19T11:30:39.228Z,52.47
2022-08-19T11:33:07.110Z,52.83
2022-08-19T11:35:35.022Z,52.55
2022-08-19T11:38:09.393Z,51.87
2022-08-19T11:40:37.639Z,50.91
2022-08-19T11:43:05.823Z,50.28
2022-08-19T11:45:33.657Z,50.35
2022-08-19T11:48:01.748Z,50.11
2022-08-19T11:50:29.897Z,50.54
2022-08-19T11:52:58.897Z,50.72
2022-08-19T11:55:28.234Z,50.74
2022-08-19T11:57:56.155Z,51.30
2022-08-19T12:00:24.249Z,50.68
2022-08-19T12:02:52.065Z,50.75
2022-08-19T12:05:20.095Z,50.22
2022-08-19T12:07:47.931Z,49.72
2022-08-19T12:10:15.990Z,49.94
2022-08-19T12:12:55.810Z,49.17
2022-08-19T12:15:28.807Z,49.37
2022-08-19T12:18:05.445Z,48.71
2022-08-19T12:20:36.529Z,48.59
2022-08-19T12:23:05.031Z,48.10
2022-08-19T12:25:34.087Z,48.34
2022-08-19T12:28:04.181Z,48.87
2022-08-19T12:30:32.495Z,48.64
2022-08-19T12:33:00.256Z,48.53
2022-08-19T12:35:28.348Z,47.52
2022-08-19T12:37:57.421Z,46.60
2022-08-19T12:40:26.507Z,46.90
2022-08-19T12:42:54.644Z,46.90
2022-08-19T12:45:23.849Z,46.44
2022-08-19T12:47:54.951Z,46.85
2022-08-19T12:50:23.670Z,46.67
2022-08-19T12:52:51.564Z,47.36
2022-08-19T12:55:20.105Z,47.41
2022-08-19T12:57:49.437Z,47.98
2022-08-19T13:00:21.875Z,48.21
2022-08-19T13:02:53.094Z,48.18
2022-08-19T13:05:23.683Z,48.46
2022-08-19T13:07:53.091Z,47.37
2022-08-19T13:10:23.025Z,47.30
2022-08-19T13:12:52.689Z,46.99
2022-08-19T13:15:24.045Z,47.09
2022-08-19T13:17:56.800Z,46.00
2022-08-19T13:20:25.880Z,46.47
2022-08-19T13:22:53.773Z,45.06
2022-08-19T13:25:21.922Z,45.19
2022-08-19T13:27:51.620Z,45.31
2022-08-19T13:30:39.139Z,44.97
2022-08-19T13:33:16.146Z,45.50
2022-08-19T13:35:47.975Z,46.08
2022-08-19T13:38:17.323Z,46.14
2022-08-19T13:40:45.782Z,45.94
2022-08-19T13:43:17.894Z,44.61
2022-08-19T13:45:57.087Z,44.58
2022-08-19T13:48:28.319Z,44.13
2022-08-19T13:50:56.542Z,43.79
2022-08-19T13:53:24.554Z,43.23
2022-08-19T13:55:54.425Z,42.61
2022-08-19T13:58:24.304Z,42.69
2022-08-19T14:00:52.211Z,42.00
2022-08-19T14:03:20.104Z,42.86
2022-08-19T14:05:49.562Z,43.21
2022-08-19T14:08:17.419Z,43.28
2022-08-19T14:10:46.414Z,43.08
2022-08-19T14:13:17.349Z,42.99
2022-08-19T14:15:46.136Z,42.57
2022-08-19T14:18:13.982Z,41.41
2022-08-19T14:20:42.347Z,41.84
2022-08-19T14:23:13.177Z,42.61
2022-08-19T14:25:41.086Z,42.39
2022-08-19T14:28:09.392Z,42.17
2022-08-19T14:30:39.069Z,41.92
2022-08-19T14:33:09.249Z,41.57
2022-08-19T14:35:37.220Z,40.63
2022-08-19T14:38:05.781Z,40.09
2022-08-19T14:40:35.650Z,39.49
2022-08-19T14:43:06.119Z,39.86
2022-08-19T14:45:37.460Z,39.86
2022-08-19T14:48:06.135Z,39.36
2022-08-19T14:50:35.808Z,39.40
2022-08-19T14:53:11.911Z,39.21
2022-08-19T14:55:45.428Z,39.29
2022-08-19T14:58:29.657Z,39.02
2022-08-19T15:01:00.899Z,39.01
2022-08-19T15:03:30.021Z,38.63
2022-08-19T15:05:58.926Z,38.67
2022-08-19T15:08:27.792Z,38.41
2022-08-19T15:10:58.226Z,37.87
2022-08-19T15:13:27.124Z,38.36
2022-08-19T15:15:55.761Z,37.84
2022-08-19T15:18:23.859Z,37.50
2022-08-19T15:20:52.086Z,38.00
2022-08-19T15:23:20.722Z,37.93
2022-08-19T15:25:48.585Z,37.97
2022-08-19T15:28:18.498Z,38.13
2022-08-19T15:30:46.401Z,37.90
2022-08-19T15:33:15.286Z,37.71
2022-08-19T15:35:44.065Z,37.02
2022-08-19T15:38:13.852Z,36.29
2022-08-19T15:40:43.265Z,35.32
2022-08-19T15:43:11.449Z,34.16
2022-08-19T15:45:44.321Z,34.27
2022-08-19T15:48:15.437Z,34.18
2022-08-19T15:50:43.504Z,34.68
2022-08-19T15:53:12.461Z,33.98
2022-08-19T15:55:44.951Z,33.88
2022-08-19T15:58:32.564Z,33.83
2022-08-19T16:01:27.046Z,34.16
2022-08-19T16:04:15.686Z,33.58
2022-08-19T16:06:46.523Z,33.86
2022-08-19T16:09:15.608Z,34.20
2022-08-19T16:11:45.741Z,33.81
2022-08-19T16:14:14.675Z,33.47
2022-08-19T16:16:46.624Z,33.51
2022-08-19T16:19:16.828Z,33.22
2022-08-19T16:21:46.197Z,33.04
2022-08-19T16:24:16.411Z,32.75
2022-08-19T16:26:45.828Z,32.31
2022-08-19T16:29:15.027Z,32.41
2022-08-19T16:31:57.791Z,31.84
2022-08-19T16:34:25.833Z,31.57
2022-08-19T16:36:54.081Z,31.47
2022-08-19T16:39:22.201Z,30.99
2022-08-19T16:41:50.904Z,30.70
2022-08-19T16:44:20.716Z,30.45
2022-08-19T16:46:57.340Z,30.37
2022-08-19T16:49:53.328Z,30.64
2022-08-19T16:52:17.561Z,30.05
2022-08-19T16:54:45.621Z,29.43
2022-08-19T16:57:14.077Z,29.08
2022-08-19T16:59:43.719Z,29.70
2022-08-19T17:02:18.084Z,30.08
2022-08-19T17:04:57.235Z,30.22
2022-08-19T17:07:26.528Z,30.27
2022-08-19T17:09:55.266Z,29.98
2022-08-19T17:12:30.492Z,30.61
2022-08-19T17:15:04.230Z,30.40
2022-08-19T17:17:33.088Z,30.11
2022-08-19T17:20:03.361Z,30.48
2022-08-19T17:22:31.262Z,30.50
2022-08-19T17:24:59.297Z,30.91
2022-08-19T17:27:32.277Z,31.20
2022-08-19T17:30:02.499Z,31.37
2022-08-19T17:32:32.493Z,32.12
2022-08-19T17:35:01.891Z,33.11
2022-08-19T17:37:29.970Z,33.86
2022-08-19T17:39:58.007Z,34.20
2022-08-19T17:42:26.333Z,35.08
2022-08-19T17:44:54.267Z,35.49
2022-08-19T17:47:24.985Z,35.35
2022-08-19T17:49:53.356Z,36.01
2022-08-19T17:52:22.713Z,35.77
2022-08-19T17:54:50.625Z,36.13
2022-08-19T17:57:19.033Z,36.36
2022-08-19T17:59:48.007Z,36.83
2022-08-19T18:02:16.714Z,37.05
2022-08-19T18:04:49.556Z,37.28
2022-08-19T18:07:21.743Z,37.29
2022-08-19T18:09:52.915Z,37.59
2022-08-19T18:12:24.552Z,37.60
2022-08-19T18:14:52.778Z,37.62
2022-08-19T18:17:23.229Z,37.78
2022-08-19T18:19:51.715Z,37.99
2022-08-19T18:22:26.766Z,38.11
2022-08-19T18:24:57.465Z,38.46
2022-08-19T18:27:26.348Z,38.69
2022-08-19T18:29:59.753Z,39.08
2022-08-19T18:32:29.507Z,39.03
2022-08-19T18:34:57.560Z,39.53
2022-08-19T18:37:27.231Z,39.88
2022-08-19T18:40:14.090Z,39.73
2022-08-19T18:43:06.185Z,40.03
2022-08-19T18:45:51.619Z,39.87
2022-08-19T18:48:36.978Z,40.19
2022-08-19T18:51:05.472Z,40.26
2022-08-19T18:53:35.936Z,40.43
2022-08-19T18:56:06.013Z,40.54
2022-08-19T18:58:35.155Z,40.85
2022-08-19T19:01:10.617Z,40.70
2022-08-19T19:03:40.298Z,41.02
2022-08-19T19:06:08.632Z,41.23
2022-08-19T19:08:36.928Z,41.48
2022-08-19T19:11:06.624Z,41.16
2022-08-19T19:13:36.155Z,41.41
2022-08-19T19:16:04.620Z,41.44
2022-08-19T19:18:33.367Z,41.63
2022-08-19T19:21:01.558Z,41.96
2022-08-19T19:23:29.738Z,42.19
2022-08-19T19:25:57.936Z,42.04
2022-08-19T19:28:28.862Z,42.17
2022-08-19T19:30:59.181Z,42.16
2022-08-19T19:33:27.371Z,42.60
2022-08-19T19:35:55.450Z,42.64
2022-08-19T19:38:23.445Z,42.26
2022-08-19T19:40:51.462Z,42.34
2022-08-19T19:43:19.358Z,42.85
2022-08-19T19:45:49.617Z,43.01
2022-08-19T19:48:17.525Z,42.79
2022-08-19T19:50:53.965Z,43.17
2022-08-19T19:53:26.001Z,43.30
2022-08-19T19:55:57.702Z,43.80
2022-08-19T19:58:28.840Z,44.00
2022-08-19T20:00:59.533Z,44.05
2022-08-19T20:03:29.843Z,44.13
2022-08-19T20:05:59.361Z,44.28
2022-08-19T20:08:46.219Z,44.13
2022-08-19T20:11:25.758Z,44.47
2022-08-19T20:13:53.927Z,44.58
2022-08-19T20:16:25.444Z,44.68
2022-08-19T20:18:55.630Z,45.15
2022-08-19T20:21:27.104Z,45.15
2022-08-19T20:24:08.659Z,45.35
2022-08-19T20:26:38.376Z,45.28
2022-08-19T20:29:13.310Z,45.74
2022-08-19T20:31:59.043Z,46.30
2022-08-19T20:34:28.748Z,46.34
2022-08-19T20:36:57.068Z,46.68
2022-08-19T20:39:25.130Z,46.74
2022-08-19T20:41:53.191Z,46.87
2022-08-19T20:44:21.450Z,47.92
2022-08-19T20:46:54.556Z,47.90
2022-08-19T20:49:27.043Z,48.14
2022-08-19T20:51:55.278Z,48.37
2022-08-19T20:54:24.192Z,48.46
2022-08-19T20:56:52.901Z,48.67
2022-08-19T20:59:21.019Z,48.72
2022-08-19T21:01:52.549Z,48.75
2022-08-19T21:04:21.225Z,48.71
2022-08-19T21:06:51.685Z,49.30
2022-08-19T21:09:19.717Z,49.05
2022-08-19T21:11:48.056Z,49.39
2022-08-19T21:14:16.159Z,49.62
2022-08-19T21:16:44.629Z,49.82
2022-08-19T21:19:12.993Z,49.81
2022-08-19T21:21:40.830Z,49.87
2022-08-19T21:24:13.368Z,50.20
2022-08-19T21:26:41.611Z,50.48
2022-08-19T21:29:09.557Z,50.62
2022-08-19T21:31:37.528Z,50.61
2022-08-19T21:34:05.910Z,50.88
2022-08-19T21:36:33.852Z,51.12
2022-08-19T21:39:01.922Z,51.33
2022-08-19T21:41:31.634Z,51.39
2022-08-19T21:43:59.648Z,51.60
2022-08-19T21:46:32.617Z,51.95
2022-08-19T21:49:00.739Z,52.32
2022-08-19T21:51:28.671Z,52.57
2022-08-19T21:53:57.504Z,52.40
2022-08-19T21:56:25.522Z,52.52
2022-08-19T21:58:55.502Z,52.99
2022-08-19T22:01:23.871Z,53.59
2022-08-19T22:03:51.816Z,53.73
2022-08-19T22:06:19.856Z,53.72
2022-08-19T22:08:47.801Z,54.24
2022-08-19T22:11:15.788Z,54.67
2022-08-19T22:13:44.600Z,54.76
2022-08-19T22:16:15.433Z,54.71
2022-08-19T22:18:44.339Z,54.47
2022-08-19T22:21:12.464Z,54.74
2022-08-19T22:23:41.696Z,54.88
2022-08-19T22:26:09.651Z,54.69
2022-08-19T22:28:38.313Z,55.22
2022-08-19T22:31:07.931Z,55.18
2022-08-19T22:33:38.341Z,55.40
2022-08-19T22:36:07.478Z,55.64
2022-08-19T22:38:36.174Z,55.93
2022-08-19T22:41:04.150Z,55.85
2022-08-19T22:43:34.047Z,56.11
2022-08-19T22:46:02.449Z,56.10
2022-08-19T22:48:32.680Z,56.44
2022-08-19T22:51:19.988Z,56.54
2022-08-19T22:53:48.899Z,56.60
2022-08-19T22:56:19.285Z,56.92
2022-08-19T22:58:50.290Z,56.98
2022-08-19T23:01:27.271Z,56.59
2022-08-19T23:03:58.750Z,56.69
2022-08-19T23:06:34.500Z,56.80
2022-08-19T23:09:06.770Z,56.81
2022-08-19T23:11:41.422Z,56.85
2022-08-19T23:14:11.318Z,56.89
2022-08-19T23:16:41.712Z,57.52
2022-08-19T23:19:10.432Z,57.51
2022-08-19T23:21:40.249Z,57.69
2022-08-19T23:24:08.926Z,57.89
2022-08-19T23:26:37.265Z,58.12
2022-08-19T23:29:24.722Z,58.39
2022-08-19T23:31:53.000Z,58.34
2022-08-19T23:34:21.705Z,58.63
2022-08-19T23:36:51.615Z,59.25
2022-08-19T23:39:20.109Z,59.57
2022-08-19T23:41:48.354Z,59.94
2022-08-19T23:44:16.321Z,60.31
2022-08-19T23:46:55.341Z,60.51
2022-08-19T23:49:25.278Z,60.52
2022-08-19T23:51:56.524Z,60.61
2022-08-19T23:54:42.629Z,60.64
2022-08-19T23:57:14.149Z,60.75
2022-08-19T23:59:47.563Z,60.64
